Time;durP1;ratioP1;P1;durP2;ratioP2;P2;SDS_P1;SDS_P2;PMS_P1;PMS_P2;Temp;Humidity;BMP_temperature;BMP_pressure;BME280_temperature;BME280_humidity;BME280_pressure;Samples;Min_cycle;Max_cycle;Signal;HPM_P1;HPM_P2
2021/06/12 00:00:42;;;;;;;18.07;16.20;;;;;;;14.84;80.76;98923.02;125135;1093;64198;-84
2021/06/12 00:03:18;;;;;;;18.40;16.63;;;;;;;14.84;80.80;98931.08;125035;1093;64277;-86
2021/06/12 00:05:45;;;;;;;19.97;18.07;;;;;;;14.85;80.84;98924.74;125109;1093;64220;-86
2021/06/12 00:08:11;;;;;;;22.23;19.97;;;;;;;14.88;80.78;98929.84;125102;1093;64284;-86
2021/06/12 00:10:39;;;;;;;20.60;18.70;;;;;;;14.88;80.63;98924.48;125200;1093;64248;-86
2021/06/12 00:13:07;;;;;;;20.00;17.90;;;;;;;14.88;80.90;98920.95;125153;1093;64279;-85
2021/06/12 00:15:35;;;;;;;19.13;17.33;;;;;;;14.89;80.83;98928.00;125175;1093;64277;-85
2021/06/12 00:18:02;;;;;;;17.27;15.77;;;;;;;14.84;80.73;98924.86;125011;1093;64865;-85
2021/06/12 00:20:33;;;;;;;17.47;15.87;;;;;;;14.78;80.85;98926.24;125058;1093;64248;-85
2021/06/12 00:22:59;;;;;;;17.20;15.20;;;;;;;14.79;80.91;98924.41;125021;1093;64389;-86
2021/06/12 00:25:28;;;;;;;18.13;16.20;;;;;;;14.77;80.95;98927.23;125099;1093;64348;-85
2021/06/12 00:27:57;;;;;;;19.33;17.53;;;;;;;14.78;81.25;98920.88;125224;1093;64300;-84
2021/06/12 00:30:25;;;;;;;18.50;16.67;;;;;;;14.80;81.13;98918.08;125101;1093;64185;-86
2021/06/12 00:32:53;;;;;;;18.70;17.00;;;;;;;14.81;81.24;98917.92;125098;1093;64168;-85
2021/06/12 00:35:20;;;;;;;18.60;16.80;;;;;;;14.81;81.03;98919.77;125203;1093;64383;-86
2021/06/12 00:37:47;;;;;;;25.70;21.33;;;;;;;14.81;81.17;98917.92;125197;1093;64322;-86
2021/06/12 00:40:16;;;;;;;20.07;18.07;;;;;;;14.82;81.23;98922.30;125120;1092;64290;-86
2021/06/12 00:42:43;;;;;;;29.10;23.73;;;;;;;14.82;80.87;98921.45;125167;1093;64194;-86
2021/06/12 00:45:13;;;;;;;21.67;18.97;;;;;;;14.83;80.92;98918.66;125061;1093;65185;-86
2021/06/12 00:47:41;;;;;;;16.80;15.30;;;;;;;14.80;80.96;98921.60;125113;1093;64332;-86
2021/06/12 00:50:08;;;;;;;14.63;13.27;;;;;;;14.76;81.00;98920.15;125139;1093;64305;-84
2021/06/12 00:52:37;;;;;;;16.27;14.77;;;;;;;14.74;80.98;98926.63;125163;1093;64274;-85
2021/06/12 00:55:09;;;;;;;16.00;14.50;;;;;;;14.67;81.11;98927.16;124997;1093;64194;-84
2021/06/12 00:57:36;;;;;;;16.17;14.63;;;;;;;14.63;81.13;98917.66;125120;1093;64308;-84
2021/06/12 01:00:09;;;;;;;17.17;15.50;;;;;;;14.61;81.25;98916.08;125106;1093;64421;-85
2021/06/12 01:02:37;;;;;;;16.13;14.63;;;;;;;14.62;81.18;98912.44;125119;1093;64274;-85
2021/06/12 01:05:07;;;;;;;15.17;13.70;;;;;;;14.60;81.30;98919.77;125143;1093;64262;-86
2021/06/12 01:07:35;;;;;;;18.23;16.37;;;;;;;14.58;81.35;98909.15;125152;1093;64326;-85
2021/06/12 01:10:04;;;;;;;18.20;16.37;;;;;;;14.61;81.53;98918.77;125152;1093;64274;-86
2021/06/12 01:12:49;;;;;;;17.85;16.25;;;;;;;14.59;81.56;98918.91;125102;1093;64332;-86
2021/06/12 01:15:17;;;;;;;18.07;16.30;;;;;;;14.59;81.14;98913.55;125076;1093;64370;-86
2021/06/12 01:18:02;;;;;;;20.43;18.47;;;;;;;14.56;81.36;98911.14;125094;1093;64275;-86
2021/06/12 01:20:57;;;;;;;19.63;17.63;;;;;;;14.55;81.70;98916.62;125133;1093;64229;-85
2021/06/12 01:23:55;;;;;;;22.25;20.05;;;;;;;14.54;81.81;98917.61;125072;1093;64251;-84
2021/06/12 01:26:39;;;;;;;22.60;20.20;;;;;;;14.58;81.91;98914.52;125082;1092;64310;-84
2021/06/12 01:29:21;;;;;;;22.60;20.43;;;;;;;14.59;82.19;98908.19;124943;1093;64265;-84
2021/06/12 01:31:52;;;;;;;20.57;18.47;;;;;;;14.60;82.26;98903.66;125008;1093;64561;-84
2021/06/12 01:34:20;;;;;;;21.40;19.03;;;;;;;14.62;82.11;98915.13;125154;1092;64271;-85
2021/06/12 01:36:48;;;;;;;19.90;17.90;;;;;;;14.64;82.05;98907.77;125026;1093;64293;-85
2021/06/12 01:39:19;;;;;;;21.57;19.43;;;;;;;14.63;82.19;98901.56;125121;1092;64303;-86
2021/06/12 01:41:48;;;;;;;21.33;19.40;;;;;;;14.62;82.02;98902.56;125124;1093;64521;-86
2021/06/12 01:44:17;;;;;;;22.70;20.35;;;;;;;14.57;82.26;98898.57;125138;1093;64279;-85
2021/06/12 01:46:45;;;;;;;21.00;18.77;;;;;;;14.53;82.26;98899.80;125081;1092;64117;-85
2021/06/12 01:49:15;;;;;;;20.43;18.40;;;;;;;14.46;82.25;98892.25;125143;1093;64776;-85
2021/06/12 01:51:43;;;;;;;21.40;17.23;;;;;;;14.42;82.44;98893.47;125163;1093;64197;-85
2021/06/12 01:54:11;;;;;;;18.47;16.67;;;;;;;14.36;82.41;98888.64;125044;1093;64373;-85
2021/06/12 01:56:40;;;;;;;18.17;16.27;;;;;;;14.36;82.79;98887.80;125174;1093;64271;-85
2021/06/12 01:59:08;;;;;;;18.33;15.90;;;;;;;14.37;82.64;98892.16;125205;1093;64271;-85
2021/06/12 02:01:37;;;;;;;16.93;15.13;;;;;;;14.39;82.79;98891.06;125149;1093;64381;-86
2021/06/12 02:04:04;;;;;;;18.38;16.68;;;;;;;14.44;82.76;98886.16;124985;1092;64408;-84
2021/06/12 02:06:32;;;;;;;18.73;16.90;;;;;;;14.48;82.75;98882.25;125163;1092;64290;-85
2021/06/12 02:09:00;;;;;;;18.83;17.00;;;;;;;14.48;82.57;98873.33;125149;1093;64271;-87
2021/06/12 02:11:27;;;;;;;18.70;16.77;;;;;;;14.50;82.53;98882.10;125246;1093;64221;-85
2021/06/12 02:13:54;;;;;;;18.03;16.27;;;;;;;14.48;82.49;98878.70;125166;1093;64288;-85
2021/06/12 02:16:24;;;;;;;17.10;15.35;;;;;;;14.47;82.35;98877.00;125059;1093;64130;-85
2021/06/12 02:18:52;;;;;;;17.50;15.70;;;;;;;14.45;82.41;98884.33;125147;1093;64271;-84
2021/06/12 02:21:23;;;;;;;16.60;15.00;;;;;;;14.44;82.39;98888.00;125088;1093;64159;-84
2021/06/12 02:23:50;;;;;;;16.80;14.95;;;;;;;14.43;82.38;98883.63;125135;1093;64297;-83
2021/06/12 02:26:20;;;;;;;18.77;16.33;;;;;;;14.45;82.40;98885.16;125085;1093;64783;-84
2021/06/12 02:28:50;;;;;;;17.38;15.58;;;;;;;14.43;82.45;98884.47;125125;1093;64248;-85
2021/06/12 02:31:26;;;;;;;19.00;17.10;;;;;;;14.42;82.55;98882.75;125177;1093;64447;-85
2021/06/12 02:33:53;;;;;;;16.93;15.27;;;;;;;14.40;82.23;98887.41;125113;1093;64297;-85
2021/06/12 02:36:19;;;;;;;16.77;15.13;;;;;;;14.39;82.26;98885.70;125132;1093;64216;-85
2021/06/12 02:38:46;;;;;;;16.37;14.70;;;;;;;14.40;82.40;98886.54;125015;1093;64347;-86
2021/06/12 02:41:17;;;;;;;16.33;14.60;;;;;;;14.40;82.33;98876.69;124951;1093;64306;-86
2021/06/12 02:43:43;;;;;;;15.53;13.93;;;;;;;14.43;82.19;98884.47;125170;1093;64399;-86
2021/06/12 02:46:14;;;;;;;16.00;13.67;;;;;;;14.47;82.56;98880.53;125186;1094;64249;-86
2021/06/12 02:48:44;;;;;;;15.70;13.97;;;;;;;14.53;82.35;98879.19;125170;1093;64229;-86
2021/06/12 02:51:10;;;;;;;16.43;14.73;;;;;;;14.58;82.27;98886.85;125069;1093;64296;-84
2021/06/12 02:53:41;;;;;;;17.17;15.47;;;;;;;14.62;82.23;98877.58;125097;1093;64296;-85
2021/06/12 02:56:08;;;;;;;20.30;15.50;;;;;;;14.64;81.82;98881.83;125086;1093;64481;-85
2021/06/12 02:58:39;;;;;;;16.75;15.10;;;;;;;14.68;81.60;98880.56;125136;1093;64220;-85
2021/06/12 03:01:05;;;;;;;17.00;15.17;;;;;;;14.73;81.54;98890.06;125215;1092;64198;-85
2021/06/12 03:03:34;;;;;;;15.80;14.20;;;;;;;14.78;81.63;98888.68;125181;1093;64290;-85
2021/06/12 03:06:03;;;;;;;16.60;14.83;;;;;;;14.86;81.56;98888.02;125168;1093;64788;-84
2021/06/12 03:08:36;;;;;;;15.20;13.60;;;;;;;14.97;81.37;98892.45;125141;1093;64254;-85
2021/06/12 03:11:06;;;;;;;15.73;14.23;;;;;;;15.09;81.20;98894.93;125040;1093;64244;-86
2021/06/12 03:13:36;;;;;;;16.30;14.47;;;;;;;15.18;81.10;98890.58;125193;1093;64195;-85
2021/06/12 03:16:03;;;;;;;15.93;14.10;;;;;;;15.26;81.05;98896.13;125129;1093;64313;-86
2021/06/12 03:18:31;;;;;;;17.23;15.43;;;;;;;15.32;80.70;98894.73;125062;1093;64427;-85
2021/06/12 03:21:00;;;;;;;14.20;12.63;;;;;;;15.39;80.73;98893.21;125257;1093;64370;-86
2021/06/12 03:23:29;;;;;;;15.13;13.10;;;;;;;15.47;80.21;98900.59;125147;1093;64281;-86
2021/06/12 03:25:56;;;;;;;15.00;13.57;;;;;;;15.68;80.13;98913.95;125242;1093;64194;-84
2021/06/12 03:28:23;;;;;;;14.53;13.00;;;;;;;16.56;79.31;98907.72;125251;1093;64308;-84
2021/06/12 03:30:50;;;;;;;12.47;11.17;;;;;;;17.65;77.55;98899.19;125075;1093;64287;-85
2021/06/12 03:33:18;;;;;;;12.43;11.23;;;;;;;18.32;75.76;98899.75;125110;1093;64166;-86
2021/06/12 03:35:45;;;;;;;12.70;11.50;;;;;;;18.78;75.19;98905.92;125246;1093;64197;-84
2021/06/12 03:38:13;;;;;;;13.00;11.80;;;;;;;19.47;73.83;98909.55;125175;1093;64355;-86
2021/06/12 03:40:40;;;;;;;12.23;11.13;;;;;;;20.16;72.51;98904.91;125143;1093;64194;-84
2021/06/12 03:43:14;;;;;;;12.57;11.40;;;;;;;20.01;71.92;98907.44;125039;1093;64274;-84
2021/06/12 03:45:42;;;;;;;11.93;10.87;;;;;;;20.22;71.37;98900.69;125131;1093;64195;-84
2021/06/12 03:48:11;;;;;;;11.95;10.85;;;;;;;20.52;70.50;98902.77;125064;1093;64290;-84
2021/06/12 03:50:39;;;;;;;11.83;10.83;;;;;;;20.43;70.47;98905.63;125093;1092;64274;-85
2021/06/12 03:53:06;;;;;;;11.40;10.40;;;;;;;20.11;70.71;98905.41;125178;1093;64268;-84
2021/06/12 03:55:34;;;;;;;11.87;10.77;;;;;;;20.05;70.19;98907.94;125055;1093;64377;-85
2021/06/12 03:58:02;;;;;;;12.03;10.97;;;;;;;19.82;70.71;98904.99;125185;1092;64473;-85
2021/06/12 04:00:30;;;;;;;13.13;11.93;;;;;;;19.64;70.93;98911.34;125113;1093;64191;-85
2021/06/12 04:02:57;;;;;;;13.80;12.03;;;;;;;19.67;71.08;98907.49;125103;1093;64220;-84
2021/06/12 04:05:24;;;;;;;13.33;11.93;;;;;;;19.44;70.52;98909.88;125135;1092;64276;-84
2021/06/12 04:07:51;;;;;;;13.73;12.40;;;;;;;19.33;70.65;98912.88;125160;1093;64318;-84
2021/06/12 04:10:17;;;;;;;13.53;12.20;;;;;;;19.26;70.58;98916.20;125171;1093;64358;-84
2021/06/12 04:12:44;;;;;;;14.60;11.13;;;;;;;19.29;70.53;98917.73;125289;1093;64197;-84
2021/06/12 04:15:12;;;;;;;13.83;12.00;;;;;;;19.41;70.92;98908.35;125215;1093;64279;-84
2021/06/12 04:17:40;;;;;;;13.93;12.60;;;;;;;19.44;70.81;98910.73;125133;1093;64251;-84
2021/06/12 04:20:07;;;;;;;12.60;11.40;;;;;;;19.74;70.15;98903.95;125166;1093;64197;-85
2021/06/12 04:22:33;;;;;;;13.13;11.83;;;;;;;19.66;70.68;98908.45;125273;1093;64284;-85
2021/06/12 04:25:00;;;;;;;13.13;11.93;;;;;;;19.62;70.33;98902.53;125168;1093;64251;-85
2021/06/12 04:27:27;;;;;;;13.30;11.93;;;;;;;19.61;70.64;98906.23;125084;1093;64292;-85
2021/06/12 04:29:53;;;;;;;13.60;12.37;;;;;;;19.51;70.66;98909.08;125042;1093;64293;-85
2021/06/12 04:32:20;;;;;;;13.50;11.70;;;;;;;19.61;70.45;98897.28;125156;1093;64248;-85
2021/06/12 04:34:46;;;;;;;13.47;12.17;;;;;;;19.64;70.61;98913.17;125164;1093;64403;-85
2021/06/12 04:37:13;;;;;;;12.60;11.45;;;;;;;19.69;70.98;98913.56;125218;1093;64274;-85
2021/06/12 04:39:40;;;;;;;13.33;12.03;;;;;;;19.85;70.08;98918.18;125226;1093;64361;-85
2021/06/12 04:42:07;;;;;;;12.37;10.70;;;;;;;19.86;70.39;98912.63;125122;1093;64191;-85
2021/06/12 04:44:35;;;;;;;12.90;11.70;;;;;;;20.61;68.96;98907.18;125157;1092;64373;-85
2021/06/12 04:47:03;;;;;;;12.53;11.23;;;;;;;21.05;68.10;98904.11;125271;1093;64287;-85
2021/06/12 04:49:29;;;;;;;12.23;11.13;;;;;;;21.12;67.52;98901.58;125204;1093;64297;-85
2021/06/12 04:51:56;;;;;;;11.87;10.67;;;;;;;21.90;66.41;98897.23;125065;1093;64277;-85
2021/06/12 04:54:23;;;;;;;12.60;11.47;;;;;;;21.77;66.45;98900.52;125246;1093;64281;-85
2021/06/12 04:56:49;;;;;;;12.75;11.45;;;;;;;21.31;66.88;98907.63;125075;1093;64365;-86
2021/06/12 04:59:16;;;;;;;11.57;10.43;;;;;;;21.13;67.45;98902.41;124966;1093;64293;-85
2021/06/12 05:01:42;;;;;;;12.10;10.90;;;;;;;21.76;65.82;98898.00;125115;1093;64248;-85
2021/06/12 05:04:09;;;;;;;11.70;10.80;;;;;;;22.51;64.18;98902.81;125132;1093;64283;-85
2021/06/12 05:06:35;;;;;;;11.60;10.60;;;;;;;23.10;63.53;98894.86;125051;1093;64274;-85
2021/06/12 05:09:03;;;;;;;11.13;10.13;;;;;;;23.79;62.10;98885.59;124976;1093;64299;-83
2021/06/12 05:11:29;;;;;;;10.90;10.00;;;;;;;24.29;60.87;98890.14;125109;1092;64290;-84
2021/06/12 05:13:56;;;;;;;10.60;9.57;;;;;;;24.75;59.51;98889.79;125166;1093;64223;-84
2021/06/12 05:16:23;;;;;;;10.40;9.50;;;;;;;25.19;59.19;98885.94;125194;1093;64277;-84
2021/06/12 05:18:49;;;;;;;10.47;9.57;;;;;;;25.66;57.95;98882.66;125062;1093;64220;-84
2021/06/12 05:21:17;;;;;;;10.30;9.30;;;;;;;26.05;56.93;98877.38;125027;1093;64364;-85
2021/06/12 05:23:43;;;;;;;9.63;8.87;;;;;;;26.15;55.82;98871.53;125108;1093;64537;-85
2021/06/12 05:26:11;;;;;;;10.50;9.37;;;;;;;26.26;55.61;98867.34;125087;1093;64238;-85
2021/06/12 05:28:38;;;;;;;9.83;8.63;;;;;;;26.50;54.66;98868.64;125259;1093;64277;-85
2021/06/12 05:31:04;;;;;;;10.33;9.27;;;;;;;26.81;54.26;98867.23;125045;1093;64342;-84
2021/06/12 05:33:33;;;;;;;9.37;8.57;;;;;;;27.05;53.46;98855.63;125066;1093;64351;-84
2021/06/12 05:36:01;;;;;;;8.90;8.10;;;;;;;27.08;52.15;98859.84;125110;1093;64223;-84
2021/06/12 05:38:27;;;;;;;9.10;8.20;;;;;;;27.19;52.20;98855.64;125170;1093;64743;-85
2021/06/12 05:40:55;;;;;;;8.50;7.70;;;;;;;27.43;51.72;98857.67;125113;1092;64271;-83
2021/06/12 05:43:23;;;;;;;9.63;8.83;;;;;;;27.39;51.49;98850.13;125218;1092;64274;-84
2021/06/12 05:45:50;;;;;;;8.30;7.50;;;;;;;27.52;50.14;98850.92;125124;1093;64443;-83
2021/06/12 05:48:18;;;;;;;8.40;7.70;;;;;;;27.50;50.67;98852.20;125135;1092;64444;-84
2021/06/12 05:50:44;;;;;;;7.43;6.73;;;;;;;27.32;50.09;98855.61;125162;1093;64310;-83
2021/06/12 05:53:11;;;;;;;8.40;7.00;;;;;;;27.18;49.66;98843.86;125187;1093;64232;-85
2021/06/12 05:55:37;;;;;;;8.15;7.35;;;;;;;27.01;49.95;98846.16;125152;1093;64281;-84
2021/06/12 05:58:04;;;;;;;7.77;7.07;;;;;;;26.91;50.22;98843.88;125203;1093;64211;-85
2021/06/12 06:00:31;;;;;;;7.90;7.10;;;;;;;27.06;49.20;98845.52;125269;1093;64367;-84
2021/06/12 06:02:58;;;;;;;7.47;6.77;;;;;;;27.17;49.04;98844.03;125173;1093;64373;-87
2021/06/12 06:05:25;;;;;;;8.40;7.70;;;;;;;27.32;48.65;98853.70;125347;1093;64194;-87
2021/06/12 06:07:51;;;;;;;8.20;7.30;;;;;;;27.41;48.40;98854.34;125138;1093;64307;-88
2021/06/12 06:10:20;;;;;;;7.55;6.85;;;;;;;27.57;48.65;98851.12;125173;1094;64191;-89
2021/06/12 06:12:47;;;;;;;7.97;7.17;;;;;;;27.68;48.04;98854.24;125060;1093;64383;-88
2021/06/12 06:15:14;;;;;;;8.13;7.37;;;;;;;27.81;48.13;98856.13;125168;1093;64383;-88
2021/06/12 06:17:42;;;;;;;8.65;7.20;;;;;;;27.90;47.95;98857.53;125154;1093;64298;-88
2021/06/12 06:20:11;;;;;;;7.07;6.47;;;;;;;28.04;47.89;98859.13;125190;1093;64316;-87
2021/06/12 06:22:38;;;;;;;7.70;7.00;;;;;;;27.92;47.06;98853.52;125098;1093;64456;-88
2021/06/12 06:25:07;;;;;;;8.37;7.50;;;;;;;27.92;48.02;98849.95;125237;1093;64351;-88
2021/06/12 06:27:34;;;;;;;8.73;7.43;;;;;;;27.96;47.54;98852.04;125341;1093;64130;-87
2021/06/12 06:30:01;;;;;;;9.17;7.37;;;;;;;27.99;47.19;98848.86;125391;1093;64195;-87
2021/06/12 06:32:28;;;;;;;7.43;6.83;;;;;;;27.96;47.03;98843.82;125386;1093;64251;-89
2021/06/12 06:34:55;;;;;;;7.77;7.03;;;;;;;28.07;47.00;98841.42;125203;1093;64233;-89
2021/06/12 06:37:21;;;;;;;7.73;7.03;;;;;;;28.06;46.23;98837.02;125284;1093;64409;-88
2021/06/12 06:39:48;;;;;;;8.37;7.57;;;;;;;27.90;46.19;98847.41;125228;1093;64332;-89
2021/06/12 06:42:15;;;;;;;8.30;7.40;;;;;;;27.92;46.75;98839.83;125260;1093;64358;-89
2021/06/12 06:44:42;;;;;;;8.07;7.23;;;;;;;28.00;46.58;98841.47;125160;1093;64268;-88
2021/06/12 06:47:08;;;;;;;8.53;6.93;;;;;;;27.89;45.99;98843.01;125268;1093;64187;-89
2021/06/12 06:49:35;;;;;;;7.50;6.90;;;;;;;27.78;46.37;98838.19;125273;1093;64341;-87
2021/06/12 06:52:04;;;;;;;9.10;8.20;;;;;;;27.76;46.37;98843.88;125365;1093;64264;-88
2021/06/12 06:54:31;;;;;;;9.00;7.73;;;;;;;27.72;46.19;98849.99;125286;1093;64370;-88
2021/06/12 06:56:58;;;;;;;8.77;7.90;;;;;;;27.59;46.54;98845.41;125367;1093;64750;-88
2021/06/12 06:59:24;;;;;;;8.43;7.63;;;;;;;27.73;46.99;98841.58;125326;1093;64228;-88
2021/06/12 07:01:51;;;;;;;8.10;6.97;;;;;;;27.89;46.96;98843.01;125272;1092;64354;-87
2021/06/12 07:04:18;;;;;;;7.80;7.20;;;;;;;27.93;46.28;98836.02;125236;1093;64287;-88
2021/06/12 07:06:44;;;;;;;7.63;6.93;;;;;;;27.84;45.80;98839.25;125164;1093;64287;-87
2021/06/12 07:09:11;;;;;;;7.90;7.10;;;;;;;27.69;46.35;98828.53;125281;1093;64300;-88
2021/06/12 07:11:38;;;;;;;7.55;6.95;;;;;;;27.49;46.19;98834.07;125209;1093;64269;-88
2021/06/12 07:14:04;;;;;;;7.47;6.87;;;;;;;27.45;46.71;98835.58;125309;1093;64251;-88
2021/06/12 07:16:31;;;;;;;6.93;6.33;;;;;;;27.55;46.98;98835.97;125197;1093;64386;-88
2021/06/12 07:18:58;;;;;;;6.23;5.63;;;;;;;27.48;46.40;98822.28;125283;1093;64370;-88
2021/06/12 07:21:24;;;;;;;7.90;7.10;;;;;;;27.33;45.84;98833.52;125280;1093;64340;-88
2021/06/12 07:23:51;;;;;;;7.00;6.30;;;;;;;27.13;45.70;98835.42;125229;1093;64383;-88
2021/06/12 07:26:18;;;;;;;6.70;6.20;;;;;;;26.79;46.50;98828.31;125176;1093;64431;-89
2021/06/12 07:28:45;;;;;;;6.70;6.03;;;;;;;26.58;47.02;98835.67;125272;1093;64389;-89
2021/06/12 07:31:11;;;;;;;6.90;6.23;;;;;;;26.46;47.45;98831.84;125270;1093;64220;-88
2021/06/12 07:33:38;;;;;;;6.30;5.70;;;;;;;26.25;48.39;98835.59;125381;1093;64278;-88
2021/06/12 07:36:05;;;;;;;8.40;5.03;;;;;;;26.13;48.29;98840.00;125184;1093;64350;-87
2021/06/12 07:38:32;;;;;;;6.27;5.77;;;;;;;26.04;48.72;98842.93;125101;1093;64287;-88
2021/06/12 07:40:58;;;;;;;5.80;5.30;;;;;;;26.00;48.70;98835.34;125239;1092;64223;-88
2021/06/12 07:43:25;;;;;;;6.15;5.65;;;;;;;25.91;48.93;98834.70;125165;1093;64311;-89
2021/06/12 07:45:52;;;;;;;6.70;6.20;;;;;;;25.81;48.67;98843.24;125223;1093;64334;-87
2021/06/12 07:48:19;;;;;;;7.23;5.57;;;;;;;25.59;48.88;98838.94;125146;1093;64229;-88
2021/06/12 07:50:45;;;;;;;6.17;5.60;;;;;;;25.51;48.85;98830.93;125160;1093;64249;-87
2021/06/12 07:53:12;;;;;;;9.00;6.00;;;;;;;25.45;48.59;98837.20;125163;1093;64293;-88
2021/06/12 07:55:39;;;;;;;7.57;6.03;;;;;;;25.24;48.00;98838.14;125220;1094;64227;-87
2021/06/12 07:58:06;;;;;;;5.37;4.97;;;;;;;25.13;49.33;98840.35;125135;1094;64277;-87
2021/06/12 08:00:32;;;;;;;5.20;4.77;;;;;;;25.21;48.85;98836.66;125123;1093;64279;-88
2021/06/12 08:02:59;;;;;;;5.45;4.95;;;;;;;25.23;48.71;98836.47;125266;1093;64312;-87
2021/06/12 08:05:26;;;;;;;4.93;4.43;;;;;;;25.24;48.64;98830.80;125193;1093;64311;-86
2021/06/12 08:07:53;;;;;;;4.97;4.57;;;;;;;25.28;48.63;98825.80;125203;1093;64309;-86
2021/06/12 08:10:19;;;;;;;5.93;5.33;;;;;;;25.34;48.88;98834.00;125099;1092;64152;-88
2021/06/12 08:12:46;;;;;;;6.57;5.97;;;;;;;25.40;49.06;98829.62;125175;1093;64325;-87
2021/06/12 08:15:13;;;;;;;5.50;5.00;;;;;;;25.43;49.47;98831.94;125238;1092;64283;-87
2021/06/12 08:17:40;;;;;;;6.20;5.60;;;;;;;25.42;49.32;98834.89;125178;1093;64281;-88
2021/06/12 08:20:08;;;;;;;6.13;5.63;;;;;;;25.45;49.10;98832.59;125229;1093;64223;-87
2021/06/12 08:22:35;;;;;;;6.03;5.53;;;;;;;25.50;49.03;98829.25;125254;1093;64277;-86
2021/06/12 08:25:03;;;;;;;5.10;4.80;;;;;;;25.49;48.63;98827.55;125271;1093;64297;-88
2021/06/12 08:27:30;;;;;;;5.80;5.30;;;;;;;25.43;48.49;98823.75;125304;1093;64369;-87
2021/06/12 08:29:57;;;;;;;5.70;5.20;;;;;;;25.52;48.92;98832.63;125239;1092;64734;-88
2021/06/12 08:32:24;;;;;;;5.07;4.57;;;;;;;25.51;48.67;98826.30;125208;1094;64277;-89
2021/06/12 08:34:51;;;;;;;5.80;4.90;;;;;;;25.53;48.47;98828.84;125253;1093;64283;-87
2021/06/12 08:37:18;;;;;;;8.80;5.00;;;;;;;25.50;48.54;98818.34;125129;1093;64281;-88
2021/06/12 08:39:45;;;;;;;6.07;5.00;;;;;;;25.52;49.09;98814.37;125226;1093;64223;-88
2021/06/12 08:42:11;;;;;;;6.50;4.97;;;;;;;25.54;49.09;98820.47;125129;1092;64319;-87
2021/06/12 08:44:41;;;;;;;7.63;5.67;;;;;;;25.69;49.14;98814.00;125192;1093;64338;-88
2021/06/12 08:47:08;;;;;;;5.50;5.10;;;;;;;25.63;47.34;98819.23;125184;1094;64146;-88
2021/06/12 08:49:35;;;;;;;6.95;5.80;;;;;;;25.61;48.02;98804.10;125182;1093;64378;-88
2021/06/12 08:52:01;;;;;;;6.43;5.93;;;;;;;25.63;47.97;98804.75;125301;1093;64380;-88
2021/06/12 08:54:28;;;;;;;5.37;5.03;;;;;;;25.76;48.33;98801.23;125314;1092;64577;-87
2021/06/12 08:56:55;;;;;;;6.37;5.30;;;;;;;25.96;48.60;98798.56;125290;1093;64335;-88
2021/06/12 08:59:22;;;;;;;6.13;5.53;;;;;;;26.20;48.95;98792.53;125205;1093;64294;-87
2021/06/12 09:01:50;;;;;;;5.13;4.73;;;;;;;26.35;48.17;98792.31;125126;1093;64318;-88
2021/06/12 09:04:43;;;;;;;5.23;4.83;;;;;;;26.40;47.99;98786.23;125616;1093;64290;-87
2021/06/12 09:07:21;;;;;;;5.47;4.97;;;;;;;26.54;48.03;98778.89;125481;1093;64279;-88
2021/06/12 09:09:50;;;;;;;5.33;4.83;;;;;;;26.68;48.21;98775.11;125432;1093;64194;-87
2021/06/12 09:12:17;;;;;;;5.40;5.00;;;;;;;26.88;47.61;98783.27;125183;1093;64373;-88
2021/06/12 09:15:11;;;;;;;6.70;5.37;;;;;;;26.98;47.40;98780.11;125128;1093;64203;-87
2021/06/12 09:17:39;;;;;;;5.97;4.67;;;;;;;27.13;46.63;98777.97;125122;1093;64383;-88
2021/06/12 09:20:08;;;;;;;5.43;4.83;;;;;;;27.28;46.46;98773.11;125114;1093;64279;-88
2021/06/12 09:22:34;;;;;;;;;;;;;;;27.47;46.43;98770.52;125240;1093;64229;-87
2021/06/12 09:25:02;;;;;;;5.20;4.70;;;;;;;27.61;46.05;98766.64;125207;1093;64198;-88
2021/06/12 09:27:29;;;;;;;5.37;4.97;;;;;;;27.71;43.39;98768.92;125249;1093;64248;-87
2021/06/12 09:29:55;;;;;;;5.90;5.50;;;;;;;27.67;44.73;98768.50;125131;1093;64264;-88
2021/06/12 09:32:24;;;;;;;5.20;4.80;;;;;;;27.98;44.71;98772.36;125232;1093;65703;-86
2021/06/12 09:34:56;;;;;;;4.60;4.20;;;;;;;28.21;45.17;98767.14;125220;1093;64223;-87
2021/06/12 09:37:28;;;;;;;4.90;4.50;;;;;;;28.37;44.46;98762.17;125250;1093;64319;-87
2021/06/12 09:40:02;;;;;;;5.47;4.97;;;;;;;28.51;44.08;98768.41;125251;1093;64313;-87
2021/06/12 09:42:43;;;;;;;5.13;4.73;;;;;;;28.68;43.67;98765.95;125253;1093;64339;-87
2021/06/12 09:45:13;;;;;;;4.27;3.87;;;;;;;28.75;42.89;98764.80;125191;1093;64270;-87
2021/06/12 09:47:40;;;;;;;5.10;4.60;;;;;;;28.82;42.38;98759.26;125167;1093;64274;-86
2021/06/12 09:50:09;;;;;;;4.80;4.40;;;;;;;28.84;41.49;98762.63;125242;1093;64274;-87
2021/06/12 09:52:51;;;;;;;20.23;12.47;;;;;;;28.88;42.50;98756.46;125319;1093;64277;-86
2021/06/12 09:55:28;;;;;;;9.80;5.50;;;;;;;29.08;42.69;98749.94;125350;1093;64415;-87
2021/06/12 09:57:58;;;;;;;5.47;4.80;;;;;;;29.25;42.55;98745.52;125173;1093;64303;-86
2021/06/12 10:00:47;;;;;;;7.87;5.47;;;;;;;29.29;42.41;98743.98;125293;1093;64294;-87
2021/06/12 10:03:20;;;;;;;7.70;5.65;;;;;;;29.29;42.22;98730.25;125361;1093;64228;-87
2021/06/12 10:05:47;;;;;;;5.90;5.30;;;;;;;29.38;42.28;98739.00;125278;1093;64341;-88
2021/06/12 10:08:15;;;;;;;7.90;5.30;;;;;;;29.40;42.19;98731.38;125339;1093;64298;-88
2021/06/12 10:10:50;;;;;;;11.33;5.63;;;;;;;29.18;41.59;98736.52;125304;1093;64284;-88
2021/06/12 10:13:22;;;;;;;5.50;5.10;;;;;;;29.04;42.13;98732.20;125231;1093;64258;-88
2021/06/12 10:15:50;;;;;;;8.03;5.13;;;;;;;29.05;41.63;98718.30;125191;1093;64300;-88
2021/06/12 10:18:20;;;;;;;4.50;4.20;;;;;;;29.09;41.61;98716.77;125179;1093;64349;-87
2021/06/12 10:20:48;;;;;;;4.80;4.40;;;;;;;29.37;41.41;98714.55;125121;1093;64361;-88
2021/06/12 10:23:16;;;;;;;4.27;3.90;;;;;;;29.60;40.45;98722.05;125115;1092;64781;-87
2021/06/12 10:25:42;;;;;;;3.77;3.47;;;;;;;29.40;39.38;98720.40;125056;1092;64355;-87
2021/06/12 10:28:10;;;;;;;4.00;3.70;;;;;;;29.15;38.87;98716.91;125060;1093;64335;-87
2021/06/12 10:30:38;;;;;;;4.97;4.03;;;;;;;29.02;39.41;98710.50;125148;1093;64405;-87
2021/06/12 10:33:07;;;;;;;4.17;3.70;;;;;;;28.90;39.29;98701.34;125480;1093;64290;-87
2021/06/12 10:35:34;;;;;;;3.75;3.53;;;;;;;28.88;40.00;98703.48;125335;1092;64232;-87
2021/06/12 10:38:05;;;;;;;4.00;3.70;;;;;;;29.01;39.29;98705.23;125240;1093;64492;-87
2021/06/12 10:40:45;;;;;;;3.97;3.60;;;;;;;29.09;40.57;98702.20;125321;1093;64274;-87
2021/06/12 10:43:14;;;;;;;4.67;4.27;;;;;;;28.98;38.79;98705.70;125275;1093;64297;-87
2021/06/12 10:45:43;;;;;;;4.70;4.07;;;;;;;28.92;39.23;98684.67;125267;1093;64274;-87
2021/06/12 10:48:31;;;;;;;;;;;;;;;29.14;38.47;98701.53;125373;1093;64332;-87
2021/06/12 10:50:58;;;;;;;4.05;3.75;;;;;;;29.44;38.30;98687.84;125214;1093;64287;-86
2021/06/12 10:53:34;;;;;;;4.30;4.00;;;;;;;29.75;38.65;98703.25;125264;1093;64312;-86
2021/06/12 10:56:03;;;;;;;5.67;4.53;;;;;;;29.77;37.65;98687.38;125107;1093;64310;-87
2021/06/12 10:58:29;;;;;;;4.60;4.30;;;;;;;29.71;37.85;98700.14;125104;1093;64297;-86
2021/06/12 11:01:16;;;;;;;4.60;4.30;;;;;;;29.62;37.88;98693.29;125134;1093;64255;-87
2021/06/12 11:06:56;;;;;;;4.40;4.10;;;;;;;29.09;38.43;98686.58;125209;1092;64281;-86
2021/06/12 11:09:26;;;;;;;4.83;4.53;;;;;;;28.86;38.89;98691.92;125204;1093;64288;-87
2021/06/12 11:11:55;;;;;;;5.23;4.83;;;;;;;28.52;38.91;98688.69;125267;1092;64279;-87
2021/06/12 11:14:22;;;;;;;;;;;;;;;28.22;39.48;98691.24;125229;1093;64458;-88
2021/06/12 11:17:04;;;;;;;5.87;5.40;;;;;;;27.92;39.61;98683.70;125277;1093;64277;-87
2021/06/12 11:19:42;;;;;;;6.93;6.33;;;;;;;27.68;40.31;98690.79;125174;1092;64293;-87
2021/06/12 11:22:32;;;;;;;6.60;6.00;;;;;;;27.53;41.09;98684.77;125214;1093;64299;-88
2021/06/12 11:25:24;;;;;;;6.93;6.43;;;;;;;27.52;41.03;98683.94;125413;1092;64348;-87
2021/06/12 11:28:15;;;;;;;7.33;6.73;;;;;;;27.65;42.09;98669.33;125196;1093;64306;-88
2021/06/12 11:30:42;;;;;;;7.80;6.47;;;;;;;27.77;41.66;98663.97;125183;1094;64251;-87